地図

経路データ

SID SEASON NUMBER BASIN SUBBASIN NAME ISO_TIME NATURE LAT LON WMO_WIND WMO_PRES WMO_AGENCY TRACK_TYPE DIST2LAND LANDFALL IFLAG USA_AGENCY USA_ATCF_ID USA_LAT USA_LON USA_RECORD USA_STATUS USA_WIND USA_PRES USA_SSHS USA_R34_NE USA_R34_SE USA_R34_SW USA_R34_NW USA_R50_NE USA_R50_SE USA_R50_SW USA_R50_NW USA_R64_NE USA_R64_SE USA_R64_SW USA_R64_NW USA_POCI USA_ROCI USA_RMW USA_EYE TOKYO_LAT TOKYO_LON TOKYO_GRADE TOKYO_WIND TOKYO_PRES TOKYO_R50_DIR TOKYO_R50_LONG TOKYO_R50_SHORT TOKYO_R30_DIR TOKYO_R30_LONG TOKYO_R30_SHORT TOKYO_LAND CMA_LAT CMA_LON CMA_CAT CMA_WIND CMA_PRES HKO_LAT HKO_LON HKO_CAT HKO_WIND HKO_PRES NEWDELHI_LAT NEWDELHI_LON NEWDELHI_GRADE NEWDELHI_WIND NEWDELHI_PRES NEWDELHI_CI NEWDELHI_DP NEWDELHI_POCI REUNION_LAT REUNION_LON REUNION_TYPE REUNION_WIND REUNION_PRES REUNION_TNUM REUNION_CI REUNION_RMW REUNION_R34_NE REUNION_R34_SE REUNION_R34_SW REUNION_R34_NW REUNION_R50_NE REUNION_R50_SE REUNION_R50_SW REUNION_R50_NW REUNION_R64_NE REUNION_R64_SE REUNION_R64_SW REUNION_R64_NW BOM_LAT BOM_LON BOM_TYPE BOM_WIND BOM_PRES BOM_TNUM BOM_CI BOM_RMW BOM_R34_NE BOM_R34_SE BOM_R34_SW BOM_R34_NW BOM_R50_NE BOM_R50_SE BOM_R50_SW BOM_R50_NW BOM_R64_NE BOM_R64_SE BOM_R64_SW BOM_R64_NW BOM_ROCI BOM_POCI BOM_EYE BOM_POS_METHOD BOM_PRES_METHOD NADI_LAT NADI_LON NADI_CAT NADI_WIND NADI_PRES WELLINGTON_LAT WELLINGTON_LON WELLINGTON_WIND WELLINGTON_PRES DS824_LAT DS824_LON DS824_STAGE DS824_WIND DS824_PRES TD9636_LAT TD9636_LON TD9636_STAGE TD9636_WIND TD9636_PRES TD9635_LAT TD9635_LON TD9635_WIND TD9635_PRES TD9635_ROCI NEUMANN_LAT NEUMANN_LON NEUMANN_CLASS NEUMANN_WIND NEUMANN_PRES MLC_LAT MLC_LON MLC_CLASS MLC_WIND MLC_PRES USA_GUST BOM_GUST BOM_GUST_PER REUNION_GUST REUNION_GUST_PER USA_SEAHGT USA_SEARAD_NE USA_SEARAD_SE USA_SEARAD_SW USA_SEARAD_NW STORM_SPEED STORM_DIR
1985347N07155 1985 116 WP MM HOPE 1985-12-13 00:00:00 NR 7.00000 155.000 main 1178 1137 __________O___ -1 7.00000 155.000 0 12 252
1985347N07155 1985 116 WP MM HOPE 1985-12-13 03:00:00 NR 6.82240 154.436 main 1133 1104 __________P___ -1 6.82240 154.436 0 12 253
1985347N07155 1985 116 WP MM HOPE 1985-12-13 06:00:00 NR 6.64821 153.866 main 1094 1064 __________P___ -1 6.64821 153.866 0 12 253
1985347N07155 1985 116 WP MM HOPE 1985-12-13 09:00:00 NR 6.48151 153.282 main 1064 1028 __________P___ -1 6.48151 153.282 0 12 255
1985347N07155 1985 116 WP MM HOPE 1985-12-13 12:00:00 NR 6.32635 152.676 main 1028 1006 __________P___ -1 6.32635 152.676 0 13 257
1985347N07155 1985 116 WP MM HOPE 1985-12-13 15:00:00 NR 6.18671 152.043 main 1004 987 __________P___ -1 6.18671 152.043 0 13 259
1985347N07155 1985 116 WP MM HOPE 1985-12-13 18:00:00 NR 6.06652 151.374 main 987 974 __________P___ -1 6.06652 151.374 0 14 261
1985347N07155 1985 116 WP MM HOPE 1985-12-13 21:00:00 NR 5.96967 150.662 main 975 938 __________P___ -1 5.96967 150.662 0 15 264
1985347N07155 1985 116 WP MM HOPE 1985-12-14 00:00:00 NR 5.90000 149.900 main 938 916 __________O___ -1 5.90000 149.900 0 16 266
1985347N07155 1985 116 WP MM HOPE 1985-12-14 03:00:00 NR 5.86334 149.085 main 916 902 __________P___ -1 5.86334 149.085 0 17 269
1985347N07155 1985 116 WP MM HOPE 1985-12-14 06:00:00 NR 5.87369 148.233 main 900 896 __________P___ -1 5.87369 148.233 0 17 273
1985347N07155 1985 116 WP MM HOPE 1985-12-14 09:00:00 NR 5.94715 147.364 main 896 896 __________P___ -1 5.94715 147.364 0 17 277
1985347N07155 1985 116 WP MM HOPE 1985-12-14 12:00:00 NR 6.10000 146.500 main 918 918 __________O___ -1 6.10000 146.500 0 18 284
1985347N07155 1985 116 WP MM HOPE 1985-12-14 15:00:00 NR 6.37878 145.580 main 958 958 __________P___ -1 6.37878 145.580 0 19 289
1985347N07155 1985 116 WP MM HOPE 1985-12-14 18:00:00 NR 6.72814 144.679 main 1008 1008 __________P___ -1 6.72814 144.679 0 19 293
1985347N07155 1985 116 WP MM HOPE 1985-12-14 21:00:00 NR 7.08833 143.864 main 1073 1073 __________P___ -1 7.08833 143.864 0 16 295
1985347N07155 1985 116 WP MM HOPE 1985-12-15 00:00:00 NR 7.40000 143.200 main 1129 1129 __________O___ -1 7.40000 143.200 0 12 294
1985347N07155 1985 116 WP MM HOPE 1985-12-15 03:00:00 NR 7.57745 142.766 main 1147 1138 __________P___ -1 7.57745 142.766 0 8 293
1985347N07155 1985 116 WP MM HOPE 1985-12-15 06:00:00 NR 7.70133 142.484 main 1145 1141 __________P___ -1 7.70133 142.484 0 5 295
1985347N07155 1985 116 WP MM HOPE 1985-12-15 09:00:00 NR 7.79960 142.285 main 1147 1143 __________P___ -1 7.79960 142.285 0 4 298
1985347N07155 1985 116 WP MM HOPE 1985-12-15 12:00:00 NR 7.90000 142.100 main 1149 1145 __________O___ -1 7.90000 142.100 0 5 298
1985347N07155 1985 116 WP MM HOPE 1985-12-15 15:00:00 NR 8.05505 141.797 main 1158 1150 __________P___ -1 8.05505 141.797 0 7 298
1985347N07155 1985 116 WP MM HOPE 1985-12-15 18:00:00 NR 8.21509 141.498 main 1157 1154 __________P___ -1 8.21509 141.498 0 6 299
1985347N07155 1985 116 WP MM HOPE 1985-12-15 21:00:00 NR 8.36757 141.225 main 1168 1165 __________P___ -1 8.36757 141.225 0 6 300
1985347N07155 1985 116 WP MM HOPE 1985-12-16 00:00:00 NR 8.50000 141.000 main 1173 1170 __________O___ -1 8.50000 141.000 0 4 302
1985347N07155 1985 116 WP MM HOPE 1985-12-16 03:00:00 NR 8.59236 140.858 main 1181 1178 __________P___ -1 8.59236 140.858 0 3 305
1985347N07155 1985 116 WP MM HOPE 1985-12-16 06:00:00 NR 8.66483 140.762 main 1189 1187 __________P___ -1 8.66483 140.762 0 2 309
1985347N07155 1985 116 WP MM HOPE 1985-12-16 09:00:00 NR 8.72989 140.686 main 1187 1187 __________P___ -1 8.72989 140.686 0 2 310
1985347N07155 1985 116 WP MM HOPE 1985-12-16 12:00:00 NR 8.80000 140.600 main 1195 1190 __________O___ -1 8.80000 140.600 0 3 309
1985347N07155 1985 116 WP MM HOPE 1985-12-16 15:00:00 NR 8.88867 140.489 main 1200 1196 __________P___ -1 8.88867 140.489 0 3 308
1985347N07155 1985 116 WP MM HOPE 1985-12-16 18:00:00 NR 8.98486 140.360 main 1206 1201 __________P___ -1 8.98486 140.360 0 3 305
1985347N07155 1985 116 WP MM HOPE 1985-12-16 21:00:00 NR 9.08863 140.201 main 1207 1194 __________P___ -1 9.08863 140.201 0 5 288
1985347N07155 1985 116 WP MM HOPE 1985-12-17 00:00:00 TS 9.14286 139.871 1002 tokyo main 1194 1193 OO_O______O___ jtwc_wp WP271985 9.20000 140.000 20 -1 8.50000 139.500 2 1002 0 0 0 9.50000 139.600 TD 25 1000 9.20000 140.000 1 20 7 284
1985347N07155 1985 116 WP MM HOPE 1985-12-17 03:00:00 TS 9.25244 139.555 main 1203 1196 PP_P______P___ WP271985 9.29254 139.703 22 -1 8.75003 139.250 2 1001 0 0 9.60004 139.350 TD 25 999 9.30980 139.735 1 21 7 295
1985347N07155 1985 116 WP MM HOPE 1985-12-17 06:00:00 TS 9.42219 139.251 1000 tokyo main 1203 1200 OOOO______P___ jtwc_wp WP271985 9.40000 139.400 25 -1 9.00000 139.000 2 1000 0 0 0 9.90000 139.300 1 23 1000 9.70000 139.100 TD 25 999 9.42766 139.430 1 22 7 299
1985347N07155 1985 116 WP MM HOPE 1985-12-17 09:00:00 TS 9.58175 138.957 main 1214 1207 PPPP______P___ WP271985 9.53499 139.092 25 -1 9.24998 138.750 2 1001 0 0 9.95253 139.005 1 26 1000 9.79998 138.850 TD 25 998 9.55667 139.110 1 23 7 300
1985347N07155 1985 116 WP MM HOPE 1985-12-17 12:00:00 TS 9.74737 138.679 1002 tokyo main 1214 1214 OOOO______O___ jtwc_wp WP271985 9.70000 138.800 25 -1 9.50000 138.500 2 1002 0 0 0 10.0000 138.700 1 29 1000 9.90000 138.600 TD 25 998 9.70000 138.800 1 25 6 301
1985347N07155 1985 116 WP MM HOPE 1985-12-17 15:00:00 TS 9.91279 138.407 main 1227 1224 PPPP______P___ WP271985 9.89996 138.542 30 -1 9.76501 138.235 2 1001 0 0 10.0425 138.385 1 29 999 10.0000 138.342 TD 27 997 9.85647 138.532 1 28 6 302
1985347N07155 1985 116 WP MM HOPE 1985-12-17 18:00:00 TS 10.0655 138.155 1000 tokyo main 1243 1238 OOOO______P___ jtwc_wp WP271985 10.1000 138.300 35 0 10.0000 138.000 2 1000 0 0 0 10.1000 138.100 1 29 998 10.1000 138.100 TD 30 997 10.0274 138.277 1 32 5 302
1985347N07155 1985 116 WP MM HOPE 1985-12-17 21:00:00 TS 10.1944 137.945 main 1247 1247 PPPP______P___ WP271985 10.2575 138.050 37 0 10.1424 137.850 2 998 0 0 10.1774 137.900 1 33 997 10.1850 137.892 TD 32 996 10.2096 138.035 1 36 5 304
1985347N07155 1985 116 WP MM HOPE 1985-12-18 00:00:00 TS 10.3400 137.740 45 996 tokyo main 1254 1238 OOOO______O___ jtwc_wp WP271985 10.4000 137.800 40 0 10.3000 137.700 3 45 996 0 9 100 100 0 10.3000 137.700 2 38 996 10.3000 137.700 TS 35 996 10.4000 137.800 2 40 6 307
1985347N07155 1985 116 WP MM HOPE 1985-12-18 03:00:00 TS 10.5433 137.482 main 1238 1222 PPPP______P___ WP271985 10.5350 137.542 45 0 10.6076 137.443 3 47 994 0 9 150 100 10.4926 137.385 2 43 994 10.4925 137.493 TS 37 993 10.5888 137.548 2 43 6 310
1985347N07155 1985 116 WP MM HOPE 1985-12-18 06:00:00 TS 10.7570 137.241 50 992 tokyo main 1214 1204 OOOO______P___ jtwc_wp WP271985 10.7000 137.300 50 0 10.9000 137.200 4 50 992 0 8 200 100 0 10.7000 137.100 3 48 992 10.7000 137.300 TS 40 990 10.7850 137.305 2 47 6 314
1985347N07155 1985 116 WP MM HOPE 1985-12-18 09:00:00 TS 10.9337 137.069 main 1207 1189 PPPP______P___ WP271985 10.9425 137.078 52 0 11.0375 137.077 4 50 988 0 8 200 100 10.8574 136.970 3 48 988 10.8425 137.135 TS 42 987 10.9888 137.085 2 51 5 319
1985347N07155 1985 116 WP MM HOPE 1985-12-18 12:00:00 TS 11.1000 136.940 50 985 tokyo main 1189 1181 OOOO______O___ jtwc_wp WP271985 11.2000 136.900 55 0 11.1000 137.000 4 50 985 0 8 200 100 0 11.0000 136.900 3 48 985 11.0000 137.000 TS 45 984 11.2000 136.900 2 55 4 324
1985347N07155 1985 116 WP MM HOPE 1985-12-18 15:00:00 TS 11.2568 136.834 main 1184 1175 PPPP______P___ WP271985 11.4000 136.785 57 0 11.1125 136.907 4 50 982 0 8 200 100 11.1275 136.800 3 53 981 11.2425 136.893 TS 50 982 11.4014 136.784 2 57 4 330
1985347N07155 1985 116 WP MM HOPE 1985-12-18 18:00:00 TS 11.4425 136.740 50 980 tokyo main 1175 1175 OOOO______P___ jtwc_wp WP271985 11.6000 136.700 60 0 11.2000 136.800 4 50 980 0 7 200 100 0 11.3000 136.700 3 58 978 11.5000 136.800 STS 55 980 11.6123 136.699 2 60 5 336
1985347N07155 1985 116 WP MM HOPE 1985-12-18 21:00:00 TS 11.6844 136.645 main 1171 1166 PPPP______P___ WP271985 11.8350 136.615 62 0 11.4975 136.665 4 55 977 0 7 200 125 11.5625 136.615 3 58 976 11.6850 136.715 STS 57 977 11.8420 136.615 2 62 6 338
1985347N07155 1985 116 WP MM HOPE 1985-12-19 00:00:00 TS 11.9800 136.520 60 975 tokyo main 1169 1161 OOOO______O___ jtwc_wp WP271985 12.1000 136.500 65 1 11.9000 136.500 4 60 975 9 60 60 7 200 150 0 11.9000 136.500 3 58 975 11.9000 136.600 STS 60 975 12.1000 136.500 3 65 7 336
1985347N07155 1985 116 WP MM HOPE 1985-12-19 03:00:00 TS 12.3343 136.348 main 1153 1137 PPPP______P___ WP271985 12.3850 136.322 65 1 12.3075 136.322 4 62 970 9 80 80 7 250 175 12.3075 136.308 3 63 969 12.2350 136.430 STS 62 970 12.4366 136.356 3 67 8 332
1985347N07155 1985 116 WP MM HOPE 1985-12-19 06:00:00 TS 12.6989 136.134 65 965 tokyo main 1137 1121 OOOO______P___ jtwc_wp WP271985 12.7000 136.100 65 1 12.7000 136.100 5 65 965 9 100 100 8 300 200 0 12.7000 136.100 4 68 964 12.6000 136.200 T 65 965 12.7945 136.170 3 70 8 328
1985347N07155 1985 116 WP MM HOPE 1985-12-19 09:00:00 TS 13.0315 135.904 main 1121 1096 PPPP______P___ WP271985 13.0799 135.873 70 1 13.0450 135.808 5 65 965 9 100 100 8 350 200 12.9723 135.995 4 68 964 12.9300 135.923 T 67 965 13.1301 135.925 3 72 8 320
1985347N07155 1985 116 WP MM HOPE 1985-12-19 12:00:00 TS 13.3000 135.620 65 965 tokyo main 1096 1070 OOOO______O___ jtwc_wp WP271985 13.4000 135.600 75 1 13.3000 135.500 5 65 965 9 100 100 8 400 200 0 13.2000 135.800 4 68 964 13.2000 135.600 T 70 965 13.4000 135.600 4 75 7 307
1985347N07155 1985 116 WP MM HOPE 1985-12-19 15:00:00 TS 13.4802 135.293 main 1070 1031 PPPP______P___ WP271985 13.5448 135.310 80 1 13.4372 135.302 5 65 962 9 100 100 8 400 200 13.4725 135.368 4 72 962 13.3873 135.295 T 72 962 13.5592 135.191 4 80 8 291
1985347N07155 1985 116 WP MM HOPE 1985-12-19 18:00:00 TS 13.5895 134.861 65 960 tokyo main 1031 968 OOOO______P___ jtwc_wp WP271985 13.6000 134.900 85 2 13.5000 135.000 5 65 960 9 100 100 8 400 200 0 13.7000 134.800 4 77 961 13.5000 134.900 T 75 960 13.6476 134.705 4 85 10 281
1985347N07155 1985 116 WP MM HOPE 1985-12-19 21:00:00 TS 13.6730 134.283 main 968 904 PPPP______P___ WP271985 13.6727 134.288 90 2 13.5727 134.410 5 75 960 9 125 112 8 400 200 13.8525 134.208 4 77 959 13.5800 134.345 T 77 960 13.6872 134.166 4 90 12 275
1985347N07155 1985 116 WP MM HOPE 1985-12-20 00:00:00 TS 13.7000 133.640 85 960 tokyo main 894 840 OOOO______O___ jtwc_wp WP271985 13.7000 133.600 95 2 13.6000 133.700 5 85 960 7 150 125 7 400 200 0 13.9000 133.600 4 77 958 13.6000 133.700 T 80 960 13.7000 133.600 4 95 12 269
1985347N07155 1985 116 WP MM HOPE 1985-12-20 03:00:00 TS 13.6594 133.031 main 830 775 PPPP______P___ WP271985 13.6499 132.985 97 3 13.5499 133.042 5 87 955 7 150 125 7 400 200 13.8223 133.050 4 87 953 13.5575 133.042 T 85 954 13.7175 133.038 4 96 12 265
1985347N07155 1985 116 WP MM HOPE 1985-12-20 06:00:00 TS 13.6030 132.431 90 950 tokyo main 764 711 OOOO______P___ jtwc_wp WP271985 13.6000 132.400 100 3 13.5000 132.400 5 90 950 7 150 125 7 400 200 0 13.7000 132.500 5 97 948 13.5000 132.400 ST 90 948 13.7150 132.457 4 97 12 267
1985347N07155 1985 116 WP MM HOPE 1985-12-20 09:00:00 TS 13.6004 131.846 main 700 648 PPPP______P___ WP271985 13.6423 131.843 100 3 13.5424 131.778 5 90 952 7 150 125 7 400 200 13.6275 131.900 5 92 951 13.4848 131.835 ST 90 949 13.7050 131.873 4 98 11 271
1985347N07155 1985 116 WP MM HOPE 1985-12-20 12:00:00 TS 13.6200 131.280 90 955 tokyo main 648 595 OOOO______O___ jtwc_wp WP271985 13.7000 131.300 100 3 13.6000 131.200 5 90 955 7 150 125 7 400 200 0 13.6000 131.300 5 87 955 13.5000 131.300 ST 90 950 13.7000 131.300 4 100 11 272
1985347N07155 1985 116 WP MM HOPE 1985-12-20 15:00:00 TS 13.6403 130.743 main 585 536 PPPP______P___ WP271985 13.6999 130.742 95 2 13.5996 130.715 5 90 957 7 150 125 7 400 200 13.6423 130.743 5 87 957 13.5423 130.758 ST 85 955 13.7174 130.757 4 96 10 273
1985347N07155 1985 116 WP MM HOPE 1985-12-20 18:00:00 TS 13.6684 130.206 90 960 tokyo main 536 475 OOOO______P___ jtwc_wp WP271985 13.7000 130.200 90 2 13.6000 130.200 5 90 960 8 150 125 8 400 200 0 13.7000 130.200 5 87 960 13.6000 130.200 T 80 960 13.7420 130.228 4 92 11 273
1985347N07155 1985 116 WP MM HOPE 1985-12-20 21:00:00 TS 13.7027 129.617 main 475 424 PPPP______P___ WP271985 13.7499 129.693 87 2 13.6429 129.470 5 80 962 8 150 125 8 400 200 13.7000 129.635 5 82 961 13.6501 129.578 T 77 962 13.7706 129.710 4 88 11 274
1985347N07155 1985 116 WP MM HOPE 1985-12-21 00:00:00 TS 13.7400 129.060 70 965 tokyo main 424 380 OOOO______O___ jtwc_wp WP271985 13.8000 129.200 85 2 13.7000 128.800 5 70 965 7 150 125 7 400 200 0 13.7000 129.100 4 77 962 13.7000 129.000 T 75 965 13.8000 129.200 4 85 10 273
1985347N07155 1985 116 WP MM HOPE 1985-12-21 03:00:00 TS 13.7613 128.615 main 380 343 PPPP______P___ WP271985 13.7999 128.700 80 1 13.7420 128.470 5 70 965 7 150 125 7 400 200 13.7347 128.650 4 72 963 13.7497 128.585 T 75 965 13.7803 128.668 4 80 8 274
1985347N07155 1985 116 WP MM HOPE 1985-12-21 06:00:00 TS 13.7935 128.189 70 965 tokyo main 343 298 OOOO______P___ jtwc_wp WP271985 13.8000 128.200 75 1 13.8000 128.200 5 70 965 7 150 125 7 400 200 0 13.8000 128.200 4 68 965 13.8000 128.200 T 75 965 13.7675 128.147 4 75 9 275
1985347N07155 1985 116 WP MM HOPE 1985-12-21 09:00:00 TS 13.8412 127.686 main 298 264 PPPP______P___ WP271985 13.8124 127.692 70 1 13.9001 127.723 5 70 967 7 137 125 7 375 200 13.8701 127.650 4 68 968 13.8275 127.715 T 72 967 13.7960 127.652 4 70 10 278
1985347N07155 1985 116 WP MM HOPE 1985-12-21 12:00:00 TS 13.9400 127.180 70 970 tokyo main 264 241 OOOO______O___ jtwc_wp WP271985 13.9000 127.200 65 1 14.0000 127.200 5 70 970 9 125 125 7 350 200 0 14.0000 127.100 4 68 972 13.9000 127.200 T 70 970 13.9000 127.200 4 65 10 285
1985347N07155 1985 116 WP MM HOPE 1985-12-21 15:00:00 TS 14.1009 126.694 main 241 209 PPPP______P___ WP271985 14.1050 126.713 65 1 14.0350 126.720 5 70 970 9 125 125 7 350 200 14.2274 126.613 4 68 973 14.0326 126.670 T 70 970 14.1046 126.755 4 65 10 294
1985347N07155 1985 116 WP MM HOPE 1985-12-21 18:00:00 TS 14.3375 126.272 70 970 tokyo main 209 179 OOOO______P___ jtwc_wp WP271985 14.4000 126.300 65 1 14.1000 126.300 5 70 970 9 125 125 7 350 200 0 14.5000 126.200 4 68 975 14.3000 126.200 T 70 970 14.3874 126.359 4 65 9 306
1985347N07155 1985 116 WP MM HOPE 1985-12-21 21:00:00 TS 14.6353 125.923 main 179 175 PPPP______P___ WP271985 14.7274 125.990 65 1 14.2550 125.940 5 70 970 9 125 125 7 337 200 14.7200 125.825 4 68 975 14.7474 125.825 T 70 972 14.7266 126.033 4 65 9 320
1985347N07155 1985 116 WP MM HOPE 1985-12-22 00:00:00 TS 15.0000 125.700 70 970 tokyo main 186 186 OOOO______O___ jtwc_wp WP271985 15.1000 125.800 65 1 14.5000 125.700 5 70 970 9 125 125 7 325 200 0 15.0000 125.600 4 68 975 15.3000 125.600 T 70 975 15.1000 125.800 4 65 8 339
1985347N07155 1985 116 WP MM HOPE 1985-12-22 03:00:00 TS 15.4167 125.615 main 210 210 PPPP______P___ WP271985 15.4925 125.712 65 1 14.8049 125.597 5 67 972 9 125 112 7 362 250 15.4274 125.582 4 68 975 15.8799 125.540 T 67 975 15.4790 125.641 4 65 9 356
1985347N07155 1985 116 WP MM HOPE 1985-12-22 06:00:00 TS 15.8569 125.636 65 975 tokyo main 254 254 OOOO______P___ jtwc_wp WP271985 15.9000 125.700 65 1 15.2000 125.600 5 65 975 8 125 100 8 400 300 0 15.9000 125.700 4 68 975 16.4000 125.600 T 65 975 15.8845 125.577 4 65 9 4
1985347N07155 1985 116 WP MM HOPE 1985-12-22 09:00:00 TS 16.2700 125.679 main 298 298 PPPP______P___ WP271985 16.3075 125.663 65 1 15.6850 125.613 5 65 975 8 125 100 8 400 250 16.3150 125.842 4 68 975 16.7450 125.678 T 65 975 16.2978 125.600 4 65 8 10
1985347N07155 1985 116 WP MM HOPE 1985-12-22 12:00:00 TS 16.6600 125.780 65 975 tokyo main 342 342 OOOO______O___ jtwc_wp WP271985 16.7000 125.700 65 1 16.2000 125.700 5 65 975 8 125 100 8 400 200 0 16.7000 126.000 4 68 975 17.0000 125.800 T 65 975 16.7000 125.700 4 65 8 17
1985347N07155 1985 116 WP MM HOPE 1985-12-22 15:00:00 TS 17.0265 125.914 main 361 361 PPPP______P___ WP271985 17.0575 125.862 65 1 16.6650 125.870 5 65 977 8 125 100 8 375 200 17.0725 126.100 4 68 975 17.2575 125.935 T 65 975 17.0801 125.800 4 66 8 23
1985347N07155 1985 116 WP MM HOPE 1985-12-22 18:00:00 TS 17.3688 126.096 65 980 tokyo main 385 385 OOOO______P___ jtwc_wp WP271985 17.4000 126.100 65 1 17.1000 126.100 5 65 980 8 125 100 8 350 200 0 17.4000 126.200 4 68 975 17.5000 126.100 T 65 975 17.4442 125.978 4 67 8 29
1985347N07155 1985 116 WP MM HOPE 1985-12-22 21:00:00 TS 17.6902 126.299 main 410 410 PPPP______P___ WP271985 17.7575 126.335 67 1 17.5149 126.320 5 62 980 8 112 87 8 350 200 17.6575 126.328 4 68 976 17.7349 126.270 T 65 977 17.7861 126.241 4 68 8 35
1985347N07155 1985 116 WP MM HOPE 1985-12-23 00:00:00 TS 18.0000 126.560 60 980 tokyo main 449 449 OOOO______O___ jtwc_wp WP271985 18.1000 126.600 70 1 17.9000 126.600 4 60 980 8 100 75 8 350 200 0 17.9000 126.500 4 68 978 18.0000 126.500 T 65 980 18.1000 126.600 4 70 8 39
1985347N07155 1985 116 WP MM HOPE 1985-12-23 03:00:00 TS 18.3340 126.854 main 485 485 PPPP______P___ WP271985 18.4219 126.818 72 1 18.2798 126.948 4 60 982 8 100 75 8 350 200 18.1846 126.668 4 63 981 18.3272 126.775 T 62 982 18.4566 127.063 4 70 10 46
1985347N07155 1985 116 WP MM HOPE 1985-12-23 06:00:00 TS 18.6547 127.283 60 985 tokyo main 528 528 OOOO______P___ jtwc_wp WP271985 18.7000 127.200 75 1 18.6000 127.400 4 60 985 8 100 75 8 350 200 0 18.5000 127.000 3 58 985 18.7000 127.200 STS 60 985 18.7734 127.615 4 70 12 57
1985347N07155 1985 116 WP MM HOPE 1985-12-23 09:00:00 TS 18.9864 127.919 main 593 593 PPPP______P___ WP271985 18.9906 127.939 72 1 18.8826 127.970 4 60 989 8 100 75 8 350 200 18.9254 127.639 3 58 987 19.1301 127.839 STS 57 987 19.0034 128.210 4 70 14 68
1985347N07155 1985 116 WP MM HOPE 1985-12-23 12:00:00 TS 19.1800 128.640 60 994 tokyo main 669 669 OOOO______O___ jtwc_wp WP271985 19.1000 128.800 70 1 19.0000 128.600 4 60 994 8 100 75 8 350 200 0 19.2000 128.400 3 58 990 19.5000 128.600 STS 55 990 19.1000 128.800 4 70 13 83
1985347N07155 1985 116 WP MM HOPE 1985-12-23 15:00:00 TS 19.1405 129.321 main 741 741 PPPP______P___ WP271985 18.8526 129.576 65 1 18.8748 129.200 4 60 996 8 100 75 8 350 200 19.0974 129.081 3 53 992 19.8453 129.402 STS 52 992 19.0323 129.348 4 65 12 104
1985347N07155 1985 116 WP MM HOPE 1985-12-23 18:00:00 TS 18.8818 129.910 60 998 tokyo main 802 802 OOOO______P___ jtwc_wp WP271985 18.5000 130.200 60 0 18.6000 129.800 4 60 998 8 100 75 8 350 200 0 18.8000 129.700 3 48 995 19.8000 130.100 STS 50 995 18.8300 129.856 4 60 12 122
1985347N07155 1985 116 WP MM HOPE 1985-12-23 21:00:00 TS 18.4914 130.404 main 821 821 PPPP______P___ WP271985 18.2948 130.574 55 0 18.2702 130.453 4 999 8 8 18.4848 130.238 3 43 997 19.0972 130.534 STS 45 997 18.5378 130.335 4 55 12 131
1985347N07155 1985 116 WP MM HOPE 1985-12-24 00:00:00 MX 18.1091 130.836 1000 tokyo main 830 830 OOOO______O___ jtwc_wp WP271985 18.2000 130.800 50 0 18.0000 131.000 6 1000 0 0 0 18.2000 130.700 2 38 999 18.0000 130.800 TS 40 1000 18.2000 130.800 2 50 9 123
1985347N07155 1985 116 WP MM HOPE 1985-12-24 03:00:00 MX 17.9898 131.227 main 859 859 _PP___________ WP271985 -1 17.9547 131.302 6 1004 0 0 18.0250 131.152 2 38 999 TS 2 6 100
1985347N07155 1985 116 WP MM HOPE 1985-12-24 06:00:00 MX 18.0000 131.500 1008 tokyo main 887 887 _OO___________ -1 18.0000 131.500 6 1008 0 0 0 18.0000 131.500 2 38 1000 2 5 80
1985347N07155 1985 116 WP MM HOPE 1985-12-24 09:00:00 MX 18.0775 131.771 main 920 920 _PP___________ -1 18.0000 131.825 6 1009 0 0 18.1549 131.717 2 38 1000 2 4 62
1985347N07155 1985 116 WP MM HOPE 1985-12-24 12:00:00 MX 18.2000 131.900 1010 tokyo main 934 931 _OO___________ -1 18.0000 132.000 6 1010 0 0 0 18.4000 131.800 2 38 1000 2 12
1985347N07155 1985 116 WP MM HOPE 1985-12-24 15:00:00 MX 18.3187 131.825 main 931 919 _PP___________ -1 18.0000 131.825 6 1010 0 0 18.6374 131.825 2 33 1000 3 305
1985347N07155 1985 116 WP MM HOPE 1985-12-24 18:00:00 MX 18.4000 131.600 1010 tokyo main 919 892 _OO___________ -1 18.0000 131.500 6 1010 0 0 0 18.8000 131.700 1 29 1000 5 280
1985347N07155 1985 116 WP MM HOPE 1985-12-24 21:00:00 MX 18.4051 131.315 main 892 860 _PP___________ -1 18.0150 131.250 6 1011 0 0 18.7952 131.380 1 29 1000 6 260
1985347N07155 1985 116 WP MM HOPE 1985-12-25 00:00:00 MX 18.3000 131.000 1012 tokyo main 860 836 _OO___________ -1 18.0000 131.000 6 1012 0 0 0 18.7000 131.000 1 29 1000 6 244
1985347N07155 1985 116 WP MM HOPE 1985-12-25 03:00:00 MX 18.1424 130.748 main 821 797 _PP___________ -1 17.9149 130.765 6 1012 0 0 18.5974 130.715 1 26 1001 6 233
1985347N07155 1985 116 WP MM HOPE 1985-12-25 06:00:00 MX 17.9400 130.500 1012 tokyo main 791 752 _OO___________ -1 17.8000 130.500 6 1012 0 0 0 18.5000 130.500 1 23 1002 7 231
1985347N07155 1985 116 WP MM HOPE 1985-12-25 09:00:00 ET 17.6925 130.172 main 752 711 _P____________ -1 17.6925 130.172 6 1012 0 0 1 8 243
1985347N07155 1985 116 WP MM HOPE 1985-12-25 12:00:00 ET 17.6000 129.800 1012 tokyo main 711 670 _O____________ -1 17.6000 129.800 6 1012 0 0 0 7 258
1985347N07155 1985 116 WP MM HOPE 1985-12-25 15:00:00 ET 17.5402 129.405 main 670 636 _P____________ -1 17.5402 129.405 6 1012 0 0 8 263
1985347N07155 1985 116 WP MM HOPE 1985-12-25 18:00:00 ET 17.5000 129.000 1012 tokyo main 636 _O____________ -1 17.5000 129.000 6 1012 0 0 0 8 264

デジタル台風データ・検索

IBTrACS Databaseについて

本データベースは、米国NOAAが公開する1842年以降の世界の熱帯低気圧のベストトラックデータアーカイブInternational Best Track Archive for Climate Stewardship (IBTrACS)を、ウェブで閲覧しやすい形式に変換したものです。

最終更新日:2021-12-06